sensor_id;sensor_type;location;lat;lon;timestamp;pressure;altitude;pressure_sealevel;temperature;humidity
49709;BME280;35601;55.902;13.606;2023-02-15T00:02:12;102340.44;;;0.07;72.10
49709;BME280;35601;55.902;13.606;2023-02-15T00:04:38;102332.55;;;-0.14;72.60
49709;BME280;35601;55.902;13.606;2023-02-15T00:07:04;102331.71;;;0.32;72.95
49709;BME280;35601;55.902;13.606;2023-02-15T00:09:29;102326.91;;;0.13;73.03
49709;BME280;35601;55.902;13.606;2023-02-15T00:11:54;102329.76;;;0.17;72.40
49709;BME280;35601;55.902;13.606;2023-02-15T00:14:21;102327.46;;;0.30;71.86
49709;BME280;35601;55.902;13.606;2023-02-15T00:16:45;102321.88;;;0.30;71.63
49709;BME280;35601;55.902;13.606;2023-02-15T00:19:11;102317.01;;;0.50;71.38
49709;BME280;35601;55.902;13.606;2023-02-15T00:21:37;102315.14;;;0.40;70.92
49709;BME280;35601;55.902;13.606;2023-02-15T00:24:03;102316.14;;;0.73;70.64
49709;BME280;35601;55.902;13.606;2023-02-15T00:26:27;102312.97;;;0.56;70.47
49709;BME280;35601;55.902;13.606;2023-02-15T00:28:52;102313.56;;;0.43;70.12
49709;BME280;35601;55.902;13.606;2023-02-15T00:31:17;102313.75;;;0.72;70.02
49709;BME280;35601;55.902;13.606;2023-02-15T00:33:42;102315.16;;;1.03;69.84
49709;BME280;35601;55.902;13.606;2023-02-15T00:36:09;102312.60;;;0.50;69.72
49709;BME280;35601;55.902;13.606;2023-02-15T00:38:34;102312.30;;;1.09;69.63
49709;BME280;35601;55.902;13.606;2023-02-15T00:41:00;102312.35;;;1.16;69.45
49709;BME280;35601;55.902;13.606;2023-02-15T00:43:24;102309.00;;;1.19;69.47
49709;BME280;35601;55.902;13.606;2023-02-15T00:45:49;102309.41;;;1.21;69.16
49709;BME280;35601;55.902;13.606;2023-02-15T00:48:15;102308.62;;;1.02;69.08
49709;BME280;35601;55.902;13.606;2023-02-15T00:50:40;102303.10;;;1.03;69.01
49709;BME280;35601;55.902;13.606;2023-02-15T00:53:05;102304.77;;;0.69;68.92
49709;BME280;35601;55.902;13.606;2023-02-15T00:55:30;102307.05;;;1.01;68.91
49709;BME280;35601;55.902;13.606;2023-02-15T00:57:56;102305.59;;;0.84;68.77
49709;BME280;35601;55.902;13.606;2023-02-15T01:00:22;102302.24;;;0.87;68.72
49709;BME280;35601;55.902;13.606;2023-02-15T01:02:47;102298.74;;;0.86;68.60
49709;BME280;35601;55.902;13.606;2023-02-15T01:05:13;102295.52;;;1.39;68.42
49709;BME280;35601;55.902;13.606;2023-02-15T01:07:38;102293.97;;;0.91;68.38
49709;BME280;35601;55.902;13.606;2023-02-15T01:10:05;102291.82;;;0.92;68.39
49709;BME280;35601;55.902;13.606;2023-02-15T01:12:29;102292.41;;;0.95;68.37
49709;BME280;35601;55.902;13.606;2023-02-15T01:14:55;102288.39;;;0.96;68.25
49709;BME280;35601;55.902;13.606;2023-02-15T01:17:21;102281.69;;;0.98;68.23
49709;BME280;35601;55.902;13.606;2023-02-15T01:19:46;102280.02;;;0.98;68.36
49709;BME280;35601;55.902;13.606;2023-02-15T01:22:12;102277.67;;;0.99;68.46
49709;BME280;35601;55.902;13.606;2023-02-15T01:24:37;102274.47;;;1.01;68.50
49709;BME280;35601;55.902;13.606;2023-02-15T01:27:03;102273.28;;;1.01;68.52
49709;BME280;35601;55.902;13.606;2023-02-15T01:29:29;102268.19;;;1.02;68.53
49709;BME280;35601;55.902;13.606;2023-02-15T01:31:54;102264.21;;;1.02;68.44
49709;BME280;35601;55.902;13.606;2023-02-15T01:34:19;102260.72;;;1.03;68.22
49709;BME280;35601;55.902;13.606;2023-02-15T01:36:44;102261.33;;;1.48;68.20
49709;BME280;35601;55.902;13.606;2023-02-15T01:39:10;102257.96;;;0.98;68.20
49709;BME280;35601;55.902;13.606;2023-02-15T01:41:35;102252.37;;;0.98;68.34
49709;BME280;35601;55.902;13.606;2023-02-15T01:44:02;102247.49;;;1.47;68.37
49709;BME280;35601;55.902;13.606;2023-02-15T01:46:30;102245.85;;;0.98;68.48
49709;BME280;35601;55.902;13.606;2023-02-15T01:48:54;102243.08;;;1.48;68.37
49709;BME280;35601;55.902;13.606;2023-02-15T01:51:19;102240.61;;;1.00;68.37
49709;BME280;35601;55.902;13.606;2023-02-15T01:53:43;102234.84;;;0.99;68.32
49709;BME280;35601;55.902;13.606;2023-02-15T01:56:11;102237.31;;;1.02;68.25
49709;BME280;35601;55.902;13.606;2023-02-15T01:58:34;102231.39;;;1.03;68.30
49709;BME280;35601;55.902;13.606;2023-02-15T02:00:59;102230.69;;;0.99;68.48
49709;BME280;35601;55.902;13.606;2023-02-15T02:03:29;102228.46;;;1.25;68.55
49709;BME280;35601;55.902;13.606;2023-02-15T02:05:48;102225.78;;;0.98;68.41
49709;BME280;35601;55.902;13.606;2023-02-15T02:08:14;102226.03;;;0.92;68.50
49709;BME280;35601;55.902;13.606;2023-02-15T02:10:40;102220.71;;;0.93;68.59
49709;BME280;35601;55.902;13.606;2023-02-15T02:13:06;102218.25;;;1.18;68.77
49709;BME280;35601;55.902;13.606;2023-02-15T02:15:39;102218.22;;;0.80;69.35
49709;BME280;35601;55.902;13.606;2023-02-15T02:18:04;102217.66;;;0.94;69.14
49709;BME280;35601;55.902;13.606;2023-02-15T02:20:35;102213.31;;;0.98;69.01
49709;BME280;35601;55.902;13.606;2023-02-15T02:23:00;102207.24;;;0.99;68.95
49709;BME280;35601;55.902;13.606;2023-02-15T02:25:24;102206.80;;;1.03;68.85
49709;BME280;35601;55.902;13.606;2023-02-15T02:27:40;102203.43;;;1.04;68.89
49709;BME280;35601;55.902;13.606;2023-02-15T02:30:25;102203.03;;;1.54;68.88
49709;BME280;35601;55.902;13.606;2023-02-15T02:34:57;102199.59;;;0.94;69.42
49709;BME280;35601;55.902;13.606;2023-02-15T02:37:24;102199.21;;;0.98;69.30
49709;BME280;35601;55.902;13.606;2023-02-15T02:39:50;102195.32;;;1.05;69.20
49709;BME280;35601;55.902;13.606;2023-02-15T02:42:15;102194.70;;;1.07;68.93
49709;BME280;35601;55.902;13.606;2023-02-15T02:44:40;102188.92;;;1.09;68.83
49709;BME280;35601;55.902;13.606;2023-02-15T02:47:07;102183.21;;;0.97;68.85
49709;BME280;35601;55.902;13.606;2023-02-15T02:49:31;102173.81;;;0.82;69.21
49709;BME280;35601;55.902;13.606;2023-02-15T02:51:57;102174.89;;;0.74;69.52
49709;BME280;35601;55.902;13.606;2023-02-15T02:54:16;102174.97;;;0.84;69.55
49709;BME280;35601;55.902;13.606;2023-02-15T02:56:44;102168.27;;;0.86;69.50
49709;BME280;35601;55.902;13.606;2023-02-15T02:59:09;102168.00;;;0.85;69.33
49709;BME280;35601;55.902;13.606;2023-02-15T03:01:35;102164.11;;;0.80;69.55
49709;BME280;35601;55.902;13.606;2023-02-15T03:03:59;102166.69;;;0.80;69.64
49709;BME280;35601;55.902;13.606;2023-02-15T03:06:25;102165.14;;;1.09;69.60
49709;BME280;35601;55.902;13.606;2023-02-15T03:08:50;102160.18;;;1.20;70.05
49709;BME280;35601;55.902;13.606;2023-02-15T03:11:14;102153.93;;;0.75;69.97
49709;BME280;35601;55.902;13.606;2023-02-15T03:13:40;102148.90;;;1.01;70.72
49709;BME280;35601;55.902;13.606;2023-02-15T03:16:06;102145.69;;;0.75;71.03
49709;BME280;35601;55.902;13.606;2023-02-15T03:18:33;102141.43;;;1.05;70.94
49709;BME280;35601;55.902;13.606;2023-02-15T03:20:57;102133.93;;;1.00;71.02
49709;BME280;35601;55.902;13.606;2023-02-15T03:23:23;102135.33;;;0.41;72.16
49709;BME280;35601;55.902;13.606;2023-02-15T03:25:50;102132.46;;;0.71;72.18
49709;BME280;35601;55.902;13.606;2023-02-15T03:28:15;102126.75;;;0.81;72.15
49709;BME280;35601;55.902;13.606;2023-02-15T03:30:39;102124.37;;;0.54;73.01
49709;BME280;35601;55.902;13.606;2023-02-15T03:33:04;102123.26;;;0.40;73.44
49709;BME280;35601;55.902;13.606;2023-02-15T03:35:33;102121.70;;;0.33;73.76
49709;BME280;35601;55.902;13.606;2023-02-15T03:37:58;102118.99;;;0.49;73.56
49709;BME280;35601;55.902;13.606;2023-02-15T03:40:22;102115.43;;;0.60;73.22
49709;BME280;35601;55.902;13.606;2023-02-15T03:42:47;102111.79;;;0.54;73.21
49709;BME280;35601;55.902;13.606;2023-02-15T03:45:14;102113.69;;;0.35;73.09
49709;BME280;35601;55.902;13.606;2023-02-15T03:47:38;102114.13;;;0.44;73.51
49709;BME280;35601;55.902;13.606;2023-02-15T03:50:05;102115.67;;;0.43;73.63
49709;BME280;35601;55.902;13.606;2023-02-15T03:52:29;102105.06;;;0.62;73.77
49709;BME280;35601;55.902;13.606;2023-02-15T03:54:52;102104.17;;;-0.01;74.83
49709;BME280;35601;55.902;13.606;2023-02-15T03:57:20;102099.01;;;0.39;75.43
49709;BME280;35601;55.902;13.606;2023-02-15T03:59:43;102100.19;;;0.05;75.85
49709;BME280;35601;55.902;13.606;2023-02-15T04:02:15;102096.61;;;0.03;76.65
49709;BME280;35601;55.902;13.606;2023-02-15T04:04:36;102095.34;;;-0.19;77.53
49709;BME280;35601;55.902;13.606;2023-02-15T04:07:00;102092.92;;;-0.26;77.99
49709;BME280;35601;55.902;13.606;2023-02-15T04:09:25;102087.57;;;-0.25;78.11
49709;BME280;35601;55.902;13.606;2023-02-15T04:11:51;102086.58;;;-0.27;78.31
49709;BME280;35601;55.902;13.606;2023-02-15T04:14:16;102083.37;;;-0.29;78.51
49709;BME280;35601;55.902;13.606;2023-02-15T04:16:42;102080.36;;;-0.20;78.41
49709;BME280;35601;55.902;13.606;2023-02-15T04:19:07;102078.73;;;-0.24;78.74
49709;BME280;35601;55.902;13.606;2023-02-15T04:21:33;102076.10;;;-0.17;78.55
49709;BME280;35601;55.902;13.606;2023-02-15T04:23:58;102072.23;;;-0.21;78.83
49709;BME280;35601;55.902;13.606;2023-02-15T04:26:23;102068.62;;;-0.22;78.93
49709;BME280;35601;55.902;13.606;2023-02-15T04:28:49;102069.36;;;-0.13;78.76
49709;BME280;35601;55.902;13.606;2023-02-15T04:31:14;102067.44;;;0.05;78.36
49709;BME280;35601;55.902;13.606;2023-02-15T04:33:39;102065.52;;;-0.15;78.10
49709;BME280;35601;55.902;13.606;2023-02-15T04:36:05;102063.97;;;-0.18;78.27
49709;BME280;35601;55.902;13.606;2023-02-15T04:38:30;102062.01;;;-0.09;78.57
49709;BME280;35601;55.902;13.606;2023-02-15T04:40:55;102057.95;;;-0.15;79.01
49709;BME280;35601;55.902;13.606;2023-02-15T04:43:21;102058.20;;;-0.09;79.00
49709;BME280;35601;55.902;13.606;2023-02-15T04:45:48;102054.18;;;0.05;78.61
49709;BME280;35601;55.902;13.606;2023-02-15T04:48:12;102054.33;;;0.01;78.70
49709;BME280;35601;55.902;13.606;2023-02-15T04:50:37;102050.98;;;0.10;78.63
49709;BME280;35601;55.902;13.606;2023-02-15T04:53:03;102049.94;;;0.19;78.57
49709;BME280;35601;55.902;13.606;2023-02-15T04:55:28;102050.10;;;-0.01;78.36
49709;BME280;35601;55.902;13.606;2023-02-15T04:57:53;102052.11;;;0.14;78.70
49709;BME280;35601;55.902;13.606;2023-02-15T05:00:19;102052.89;;;-0.02;79.12
49709;BME280;35601;55.902;13.606;2023-02-15T05:02:44;102048.43;;;-0.26;80.14
49709;BME280;35601;55.902;13.606;2023-02-15T05:05:09;102046.90;;;-0.47;81.13
49709;BME280;35601;55.902;13.606;2023-02-15T05:07:34;102045.05;;;0.05;81.35
49709;BME280;35601;55.902;13.606;2023-02-15T05:10:00;102042.90;;;-0.50;81.71
49709;BME280;35601;55.902;13.606;2023-02-15T05:12:26;102042.35;;;-0.03;81.48
49709;BME280;35601;55.902;13.606;2023-02-15T05:14:51;102039.70;;;-0.59;81.47
49709;BME280;35601;55.902;13.606;2023-02-15T05:17:17;102040.15;;;-0.13;82.01
49709;BME280;35601;55.902;13.606;2023-02-15T05:19:42;102039.78;;;-0.37;82.25
49709;BME280;35601;55.902;13.606;2023-02-15T05:22:08;102042.84;;;-0.53;83.05
49709;BME280;35601;55.902;13.606;2023-02-15T05:24:33;102043.37;;;-0.40;82.94
49709;BME280;35601;55.902;13.606;2023-02-15T05:26:59;102042.36;;;0.05;83.15
49709;BME280;35601;55.902;13.606;2023-02-15T05:29:25;102040.86;;;-0.38;83.77
49709;BME280;35601;55.902;13.606;2023-02-15T05:31:50;102042.30;;;-0.26;83.85
49709;BME280;35601;55.902;13.606;2023-02-15T05:34:16;102042.40;;;-0.13;83.38
49709;BME280;35601;55.902;13.606;2023-02-15T05:36:41;102039.22;;;0.02;83.24
49709;BME280;35601;55.902;13.606;2023-02-15T05:39:07;102035.02;;;-0.11;82.89
49709;BME280;35601;55.902;13.606;2023-02-15T05:41:32;102036.76;;;-0.14;82.92
49709;BME280;35601;55.902;13.606;2023-02-15T05:43:58;102037.98;;;-0.15;83.30
49709;BME280;35601;55.902;13.606;2023-02-15T05:46:23;102032.67;;;-1.31;83.24
49709;BME280;35601;55.902;13.606;2023-02-15T05:48:48;102031.79;;;-0.02;83.05
49709;BME280;35601;55.902;13.606;2023-02-15T05:51:14;102029.12;;;0.09;83.52
49709;BME280;35601;55.902;13.606;2023-02-15T05:53:40;102029.56;;;-0.04;83.43
49709;BME280;35601;55.902;13.606;2023-02-15T05:56:07;102030.64;;;-0.24;83.95
49709;BME280;35601;55.902;13.606;2023-02-15T05:58:32;102030.55;;;-0.06;84.36
49709;BME280;35601;55.902;13.606;2023-02-15T06:00:56;102026.87;;;-0.05;84.62
49709;BME280;35601;55.902;13.606;2023-02-15T06:03:22;102026.88;;;-0.24;84.56
49709;BME280;35601;55.902;13.606;2023-02-15T06:05:47;102025.59;;;-0.07;84.12
49709;BME280;35601;55.902;13.606;2023-02-15T06:08:12;102023.60;;;-0.11;84.27
49709;BME280;35601;55.902;13.606;2023-02-15T06:10:38;102023.39;;;-0.14;84.46
49709;BME280;35601;55.902;13.606;2023-02-15T06:13:03;102024.58;;;-0.07;84.26
49709;BME280;35601;55.902;13.606;2023-02-15T06:15:29;102022.59;;;-0.03;84.25
49709;BME280;35601;55.902;13.606;2023-02-15T06:17:54;102018.26;;;0.09;83.91
49709;BME280;35601;55.902;13.606;2023-02-15T06:20:20;102015.73;;;0.05;84.06
49709;BME280;35601;55.902;13.606;2023-02-15T06:22:46;102016.33;;;0.05;84.29
49709;BME280;35601;55.902;13.606;2023-02-15T06:25:12;102013.85;;;-1.28;84.00
49709;BME280;35601;55.902;13.606;2023-02-15T06:27:36;102013.71;;;0.30;82.86
49709;BME280;35601;55.902;13.606;2023-02-15T06:30:03;102010.74;;;0.02;82.78
49709;BME280;35601;55.902;13.606;2023-02-15T06:32:27;102008.18;;;0.19;83.07
49709;BME280;35601;55.902;13.606;2023-02-15T06:34:53;102007.01;;;0.25;83.78
49709;BME280;35601;55.902;13.606;2023-02-15T06:37:18;102006.46;;;0.24;84.19
49709;BME280;35601;55.902;13.606;2023-02-15T06:39:43;102005.38;;;0.20;84.27
49709;BME280;35601;55.902;13.606;2023-02-15T06:42:08;102010.58;;;0.12;84.72
49709;BME280;35601;55.902;13.606;2023-02-15T06:44:34;102007.89;;;0.23;84.64
49709;BME280;35601;55.902;13.606;2023-02-15T06:47:00;102008.77;;;0.24;84.62
49709;BME280;35601;55.902;13.606;2023-02-15T06:49:25;102007.60;;;0.14;84.92
49709;BME280;35601;55.902;13.606;2023-02-15T06:51:50;102004.02;;;-0.01;84.84
49709;BME280;35601;55.902;13.606;2023-02-15T06:54:16;102001.38;;;0.14;85.11
49709;BME280;35601;55.902;13.606;2023-02-15T06:56:41;102001.40;;;0.09;85.39
49709;BME280;35601;55.902;13.606;2023-02-15T06:59:06;102002.20;;;0.08;85.69
49709;BME280;35601;55.902;13.606;2023-02-15T07:01:32;102000.07;;;0.17;85.63
49709;BME280;35601;55.902;13.606;2023-02-15T07:03:57;102003.87;;;0.12;85.91
49709;BME280;35601;55.902;13.606;2023-02-15T07:06:22;101999.33;;;0.05;85.52
49709;BME280;35601;55.902;13.606;2023-02-15T07:08:48;101995.70;;;0.34;85.48
49709;BME280;35601;55.902;13.606;2023-02-15T07:11:13;101990.47;;;0.21;85.86
49709;BME280;35601;55.902;13.606;2023-02-15T07:13:39;101987.39;;;0.35;85.47
49709;BME280;35601;55.902;13.606;2023-02-15T07:16:04;101986.77;;;0.41;85.43
49709;BME280;35601;55.902;13.606;2023-02-15T07:18:29;101988.16;;;0.48;85.31
49709;BME280;35601;55.902;13.606;2023-02-15T07:20:55;101984.92;;;0.27;85.76
49709;BME280;35601;55.902;13.606;2023-02-15T07:23:20;101982.56;;;0.39;85.89
49709;BME280;35601;55.902;13.606;2023-02-15T07:25:46;101981.47;;;0.30;86.26
49709;BME280;35601;55.902;13.606;2023-02-15T07:28:11;101978.16;;;0.43;85.89
49709;BME280;35601;55.902;13.606;2023-02-15T07:30:36;101974.35;;;0.44;85.78
49709;BME280;35601;55.902;13.606;2023-02-15T07:33:02;101974.59;;;0.49;85.66
49709;BME280;35601;55.902;13.606;2023-02-15T07:35:27;101974.58;;;0.33;85.83
49709;BME280;35601;55.902;13.606;2023-02-15T07:37:52;101970.74;;;0.50;85.86
49709;BME280;35601;55.902;13.606;2023-02-15T07:40:18;101971.14;;;0.56;85.91
49709;BME280;35601;55.902;13.606;2023-02-15T07:42:44;101968.58;;;0.49;86.08
49709;BME280;35601;55.902;13.606;2023-02-15T07:45:09;101968.82;;;0.28;86.06
49709;BME280;35601;55.902;13.606;2023-02-15T07:47:35;101971.80;;;0.69;85.68
49709;BME280;35601;55.902;13.606;2023-02-15T07:50:00;101971.27;;;0.74;85.58
49709;BME280;35601;55.902;13.606;2023-02-15T07:52:25;101972.06;;;0.49;85.68
49709;BME280;35601;55.902;13.606;2023-02-15T07:54:51;101972.08;;;0.55;85.31
49709;BME280;35601;55.902;13.606;2023-02-15T07:57:16;101968.07;;;0.84;85.34
49709;BME280;35601;55.902;13.606;2023-02-15T07:59:41;101962.53;;;0.64;85.30
49709;BME280;35601;55.902;13.606;2023-02-15T08:02:09;101962.06;;;0.97;85.05
49709;BME280;35601;55.902;13.606;2023-02-15T08:04:32;101957.67;;;0.95;85.18
49709;BME280;35601;55.902;13.606;2023-02-15T08:06:57;101956.85;;;0.54;85.12
49709;BME280;35601;55.902;13.606;2023-02-15T08:09:22;101955.77;;;0.91;84.68
49709;BME280;35601;55.902;13.606;2023-02-15T08:11:48;101958.54;;;0.89;84.74
49709;BME280;35601;55.902;13.606;2023-02-15T08:14:14;101960.78;;;0.77;84.52
49709;BME280;35601;55.902;13.606;2023-02-15T08:16:40;101958.86;;;0.92;84.04
49709;BME280;35601;55.902;13.606;2023-02-15T08:19:06;101957.60;;;0.95;84.03
49709;BME280;35601;55.902;13.606;2023-02-15T08:21:31;101956.22;;;1.01;83.92
49709;BME280;35601;55.902;13.606;2023-02-15T08:23:56;101950.30;;;0.81;83.70
49709;BME280;35601;55.902;13.606;2023-02-15T08:26:21;101950.39;;;0.91;84.77
49709;BME280;35601;55.902;13.606;2023-02-15T08:28:46;101941.47;;;0.62;85.33
49709;BME280;35601;55.902;13.606;2023-02-15T08:31:13;101941.33;;;0.88;85.65
49709;BME280;35601;55.902;13.606;2023-02-15T08:33:39;101940.14;;;0.63;86.01
49709;BME280;35601;55.902;13.606;2023-02-15T08:36:03;101936.09;;;1.01;86.23
49709;BME280;35601;55.902;13.606;2023-02-15T08:38:28;101936.68;;;0.45;86.54
49709;BME280;35601;55.902;13.606;2023-02-15T08:40:53;101933.69;;;0.74;86.76
49709;BME280;35601;55.902;13.606;2023-02-15T08:43:19;101930.45;;;0.77;86.55
49709;BME280;35601;55.902;13.606;2023-02-15T08:45:44;101928.54;;;0.75;86.74
49709;BME280;35601;55.902;13.606;2023-02-15T08:48:10;101926.80;;;0.74;86.77
49709;BME280;35601;55.902;13.606;2023-02-15T08:50:35;101917.05;;;0.70;86.55
49709;BME280;35601;55.902;13.606;2023-02-15T08:53:00;101917.06;;;0.95;86.27
49709;BME280;35601;55.902;13.606;2023-02-15T08:55:26;101917.84;;;1.12;86.36
49709;BME280;35601;55.902;13.606;2023-02-15T08:57:51;101918.03;;;1.19;86.30
49709;BME280;35601;55.902;13.606;2023-02-15T09:00:18;101916.15;;;0.85;86.19
49709;BME280;35601;55.902;13.606;2023-02-15T09:02:43;101913.22;;;0.98;85.88
49709;BME280;35601;55.902;13.606;2023-02-15T09:05:08;101913.77;;;0.94;85.58
49709;BME280;35601;55.902;13.606;2023-02-15T09:07:34;101913.63;;;1.05;85.70
49709;BME280;35601;55.902;13.606;2023-02-15T09:09:59;101919.12;;;1.29;85.71
49709;BME280;35601;55.902;13.606;2023-02-15T09:12:25;101920.62;;;1.39;85.42
49709;BME280;35601;55.902;13.606;2023-02-15T09:14:50;101921.28;;;1.40;85.23
49709;BME280;35601;55.902;13.606;2023-02-15T09:17:16;101918.33;;;1.17;85.14
49709;BME280;35601;55.902;13.606;2023-02-15T09:19:41;101915.65;;;1.18;85.03
49709;BME280;35601;55.902;13.606;2023-02-15T09:22:07;101911.69;;;1.30;84.84
49709;BME280;35601;55.902;13.606;2023-02-15T09:24:32;101911.82;;;1.13;84.70
49709;BME280;35601;55.902;13.606;2023-02-15T09:26:58;101908.99;;;1.48;85.37
49709;BME280;35601;55.902;13.606;2023-02-15T09:29:23;101905.08;;;1.25;85.62
49709;BME280;35601;55.902;13.606;2023-02-15T09:31:50;101902.29;;;1.26;85.39
49709;BME280;35601;55.902;13.606;2023-02-15T09:34:16;101897.95;;;1.23;85.76
49709;BME280;35601;55.902;13.606;2023-02-15T09:36:40;101890.51;;;1.20;85.95
49709;BME280;35601;55.902;13.606;2023-02-15T09:39:08;101886.81;;;1.12;86.48
49709;BME280;35601;55.902;13.606;2023-02-15T09:44:04;101881.71;;;1.02;87.12
49709;BME280;35601;55.902;13.606;2023-02-15T09:46:32;101881.14;;;1.03;87.79
49709;BME280;35601;55.902;13.606;2023-02-15T09:48:48;101881.75;;;1.20;87.64
49709;BME280;35601;55.902;13.606;2023-02-15T09:51:22;101880.71;;;1.18;87.94
49709;BME280;35601;55.902;13.606;2023-02-15T09:53:50;101877.00;;;1.52;87.70
49709;BME280;35601;55.902;13.606;2023-02-15T09:56:09;101871.52;;;1.09;88.25
49709;BME280;35601;55.902;13.606;2023-02-15T09:58:36;101870.27;;;1.08;88.21
49709;BME280;35601;55.902;13.606;2023-02-15T10:00:59;101869.31;;;1.32;88.78
49709;BME280;35601;55.902;13.606;2023-02-15T10:03:30;101870.27;;;1.08;88.82
49709;BME280;35601;55.902;13.606;2023-02-15T10:05:55;101870.22;;;1.33;88.25
49709;BME280;35601;55.902;13.606;2023-02-15T10:08:22;101869.33;;;1.01;88.54
49709;BME280;35601;55.902;13.606;2023-02-15T10:10:40;101866.96;;;1.64;88.64
49709;BME280;35601;55.902;13.606;2023-02-15T10:13:13;101864.74;;;1.49;87.91
49709;BME280;35601;55.902;13.606;2023-02-15T10:15:34;101859.16;;;1.62;87.80
49709;BME280;35601;55.902;13.606;2023-02-15T10:18:03;101857.10;;;1.58;87.25
49709;BME280;35601;55.902;13.606;2023-02-15T10:20:24;101856.65;;;1.45;86.64
49709;BME280;35601;55.902;13.606;2023-02-15T10:22:54;101855.99;;;1.50;86.89
49709;BME280;35601;55.902;13.606;2023-02-15T10:25:17;101853.68;;;1.62;86.86
49709;BME280;35601;55.902;13.606;2023-02-15T10:27:39;101850.91;;;1.47;87.11
49709;BME280;35601;55.902;13.606;2023-02-15T10:30:06;101846.97;;;1.58;87.12
49709;BME280;35601;55.902;13.606;2023-02-15T10:32:26;101844.16;;;1.86;86.97
49709;BME280;35601;55.902;13.606;2023-02-15T10:34:52;101844.63;;;1.61;87.16
49709;BME280;35601;55.902;13.606;2023-02-15T10:37:36;101845.51;;;1.57;87.17
49709;BME280;35601;55.902;13.606;2023-02-15T10:39:49;101845.57;;;1.63;87.38
49709;BME280;35601;55.902;13.606;2023-02-15T10:42:11;101840.36;;;1.64;86.91
49709;BME280;35601;55.902;13.606;2023-02-15T10:44:43;101842.80;;;1.66;87.17
49709;BME280;35601;55.902;13.606;2023-02-15T10:47:11;101840.93;;;1.99;86.16
49709;BME280;35601;55.902;13.606;2023-02-15T10:49:30;101841.31;;;1.74;86.50
49709;BME280;35601;55.902;13.606;2023-02-15T10:51:56;101836.01;;;1.59;86.90
49709;BME280;35601;55.902;13.606;2023-02-15T10:54:22;101837.64;;;1.49;86.71
49709;BME280;35601;55.902;13.606;2023-02-15T10:56:45;101837.67;;;1.59;87.17
49709;BME280;35601;55.902;13.606;2023-02-15T10:59:16;101836.44;;;1.53;86.84
49709;BME280;35601;55.902;13.606;2023-02-15T11:01:34;101833.53;;;1.37;88.13
49709;BME280;35601;55.902;13.606;2023-02-15T11:04:06;101832.76;;;1.63;87.87
49709;BME280;35601;55.902;13.606;2023-02-15T11:06:22;101830.80;;;1.55;88.35
49709;BME280;35601;55.902;13.606;2023-02-15T11:08:49;101827.92;;;1.54;88.70
49709;BME280;35601;55.902;13.606;2023-02-15T11:11:14;101824.18;;;1.49;89.27
49709;BME280;35601;55.902;13.606;2023-02-15T11:13:39;101826.03;;;1.68;88.46
49709;BME280;35601;55.902;13.606;2023-02-15T11:16:05;101825.58;;;1.90;87.29
49709;BME280;35601;55.902;13.606;2023-02-15T11:18:32;101819.72;;;1.96;87.06
49709;BME280;35601;55.902;13.606;2023-02-15T11:20:56;101821.58;;;1.82;87.74
49709;BME280;35601;55.902;13.606;2023-02-15T11:23:19;101823.54;;;1.84;88.16
49709;BME280;35601;55.902;13.606;2023-02-15T11:25:47;101819.84;;;2.05;87.43
49709;BME280;35601;55.902;13.606;2023-02-15T11:28:17;101817.01;;;1.97;86.14
49709;BME280;35601;55.902;13.606;2023-02-15T11:30:41;101810.98;;;1.70;86.95
49709;BME280;35601;55.902;13.606;2023-02-15T11:33:02;101802.42;;;1.94;87.41
49709;BME280;35601;55.902;13.606;2023-02-15T11:35:28;101808.14;;;2.36;86.81
49709;BME280;35601;55.902;13.606;2023-02-15T11:37:54;101802.27;;;2.33;85.24
49709;BME280;35601;55.902;13.606;2023-02-15T11:40:22;101800.34;;;2.18;85.34
49709;BME280;35601;55.902;13.606;2023-02-15T11:42:43;101801.45;;;2.32;85.15
49709;BME280;35601;55.902;13.606;2023-02-15T11:45:20;101794.76;;;1.91;85.67
49709;BME280;35601;55.902;13.606;2023-02-15T11:47:34;101791.67;;;1.78;86.30
49709;BME280;35601;55.902;13.606;2023-02-15T11:50:00;101790.74;;;2.03;86.38
49709;BME280;35601;55.902;13.606;2023-02-15T11:52:25;101789.20;;;2.24;85.98
49709;BME280;35601;55.902;13.606;2023-02-15T11:54:51;101788.53;;;1.96;86.59
49709;BME280;35601;55.902;13.606;2023-02-15T11:57:21;101783.82;;;1.53;87.70
49709;BME280;35601;55.902;13.606;2023-02-15T11:59:47;101780.87;;;1.67;87.62
49709;BME280;35601;55.902;13.606;2023-02-15T12:02:16;101775.91;;;1.72;87.70
49709;BME280;35601;55.902;13.606;2023-02-15T12:04:36;101780.25;;;2.38;87.27
49709;BME280;35601;55.902;13.606;2023-02-15T12:07:00;101782.40;;;1.96;87.10
49709;BME280;35601;55.902;13.606;2023-02-15T12:09:28;101781.41;;;2.15;86.02
49709;BME280;35601;55.902;13.606;2023-02-15T12:11:47;101779.12;;;2.12;86.41
49709;BME280;35601;55.902;13.606;2023-02-15T12:14:13;101773.59;;;1.89;85.62
49709;BME280;35601;55.902;13.606;2023-02-15T12:16:43;101774.60;;;2.10;85.00
49709;BME280;35601;55.902;13.606;2023-02-15T12:19:03;101773.89;;;2.25;84.78
49709;BME280;35601;55.902;13.606;2023-02-15T12:21:30;101770.51;;;2.21;83.75
49709;BME280;35601;55.902;13.606;2023-02-15T12:23:56;101765.15;;;2.73;83.40
49709;BME280;35601;55.902;13.606;2023-02-15T12:26:24;101760.53;;;2.09;83.93
49709;BME280;35601;55.902;13.606;2023-02-15T12:28:49;101755.20;;;2.51;83.53
49709;BME280;35601;55.902;13.606;2023-02-15T12:31:19;101752.10;;;2.32;83.35
49709;BME280;35601;55.902;13.606;2023-02-15T12:33:41;101747.86;;;2.35;83.86
49709;BME280;35601;55.902;13.606;2023-02-15T12:36:06;101742.77;;;2.35;83.86
49709;BME280;35601;55.902;13.606;2023-02-15T12:38:27;101742.69;;;2.26;83.53
49709;BME280;35601;55.902;13.606;2023-02-15T12:40:58;101741.31;;;2.20;83.65
49709;BME280;35601;55.902;13.606;2023-02-15T12:43:24;101736.46;;;2.11;83.60